Time;durP1;ratioP1;P1;durP2;ratioP2;P2;SDS_P1;SDS_P2;PMS_P1;PMS_P2;Temp;Humidity;BMP_temperature;BMP_pressure;BME280_temperature;BME280_humidity;BME280_pressure;Samples;Min_cycle;Max_cycle;Signal;HPM_P1;HPM_P2
2022/06/17 00:01:53;;;;;;;6.78;2.42;;;22.30;99.90;;;;;;5109053;28;20107;-80
2022/06/17 00:04:20;;;;;;;3.78;2.20;;;22.20;99.90;;;;;;5105924;28;20066;-81
2022/06/17 00:06:51;;;;;;;4.97;2.30;;;22.20;99.90;;;;;;5102232;28;20044;-79
2022/06/17 00:09:20;;;;;;;5.13;2.50;;;22.10;99.90;;;;;;5109064;28;20067;-79
2022/06/17 00:11:47;;;;;;;4.38;2.40;;;22.00;99.90;;;;;;5108019;28;20040;-80
2022/06/17 00:14:19;;;;;;;3.45;2.13;;;22.00;99.90;;;;;;5107748;28;20058;-80
2022/06/17 00:16:47;;;;;;;5.03;2.42;;;22.00;99.90;;;;;;5110289;28;20044;-77
2022/06/17 00:19:17;;;;;;;5.65;2.42;;;22.00;99.90;;;;;;5107150;28;20063;-80
2022/06/17 00:21:48;;;;;;;6.93;2.70;;;22.00;99.90;;;;;;5114680;28;20047;-79
2022/06/17 00:24:30;;;;;;;6.00;2.42;;;21.90;99.90;;;;;;5110737;28;20127;-80
2022/06/17 00:26:57;;;;;;;3.88;2.72;;;21.90;99.90;;;;;;5100533;28;20055;-80
2022/06/17 00:29:27;;;;;;;5.28;2.63;;;21.90;99.90;;;;;;5109794;28;20126;-80
2022/06/17 00:31:54;;;;;;;;;;;21.80;99.90;;;;;;5107711;28;20048;-80
2022/06/17 00:34:21;;;;;;;4.20;2.50;;;21.80;99.90;;;;;;5108129;28;19973;-80
2022/06/17 00:36:47;;;;;;;3.28;2.53;;;21.80;99.90;;;;;;5108367;28;20049;-80
2022/06/17 00:39:23;;;;;;;5.97;2.63;;;21.70;99.90;;;;;;5107061;28;20047;-81
2022/06/17 00:41:55;;;;;;;2.92;2.42;;;21.70;99.90;;;;;;5100318;28;20075;-81
2022/06/17 00:44:54;;;;;;;4.25;2.60;;;21.50;99.90;;;;;;5110904;28;20180;-82
2022/06/17 00:47:29;;;;;;;7.45;2.70;;;21.50;99.90;;;;;;5108117;28;20052;-82
2022/06/17 00:50:23;;;;;;;6.47;3.10;;;21.50;99.90;;;;;;5108473;28;20052;-82
2022/06/17 00:53:26;;;;;;;4.22;2.72;;;21.50;99.90;;;;;;5111058;28;20040;-81
2022/06/17 00:56:13;;;;;;;5.70;2.92;;;21.40;99.90;;;;;;5103648;28;20131;-81
2022/06/17 00:59:18;;;;;;;4.65;2.63;;;21.40;99.90;;;;;;5104466;28;20040;-80
2022/06/17 01:01:53;;;;;;;5.32;2.65;;;21.40;99.90;;;;;;5086271;28;20434;-79
2022/06/17 01:04:33;;;;;;;4.15;2.40;;;21.40;99.90;;;;;;5079815;28;20057;-81
2022/06/17 01:07:23;;;;;;;4.30;2.53;;;21.30;99.90;;;;;;5084216;28;20056;-81
2022/06/17 01:09:57;;;;;;;4.25;2.90;;;21.20;99.90;;;;;;5093785;28;20140;-81
2022/06/17 01:12:33;;;;;;;6.28;3.00;;;21.20;99.90;;;;;;5095469;28;20086;-82
2022/06/17 01:15:01;;;;;;;7.38;2.67;;;21.20;99.90;;;;;;5090170;28;20044;-82
2022/06/17 01:17:28;;;;;;;6.50;2.33;;;21.10;99.90;;;;;;5097747;28;20040;-82
2022/06/17 01:19:57;;;;;;;3.63;2.40;;;21.10;99.90;;;;;;5094924;28;20048;-81
2022/06/17 01:22:27;;;;;;;4.40;2.40;;;21.10;99.90;;;;;;5096467;28;20075;-80
2022/06/17 01:25:03;;;;;;;5.53;3.00;;;21.10;99.90;;;;;;5096775;28;20080;-82
2022/06/17 01:27:35;;;;;;;2.58;2.25;;;21.00;99.90;;;;;;5091536;28;20111;-80
2022/06/17 01:30:03;;;;;;;4.78;2.60;;;21.00;99.90;;;;;;5096249;28;20140;-82
2022/06/17 01:32:36;;;;;;;6.32;2.35;;;21.00;99.90;;;;;;5095758;28;20092;-80
2022/06/17 01:35:04;;;;;;;8.35;3.00;;;21.00;99.90;;;;;;5093009;28;20103;-82
2022/06/17 01:37:31;;;;;;;4.47;2.55;;;20.90;99.90;;;;;;5093669;28;20044;-82
2022/06/17 01:39:58;;;;;;;2.63;2.33;;;20.90;99.90;;;;;;5102874;28;20041;-81
2022/06/17 01:42:26;;;;;;;4.53;2.55;;;20.80;99.90;;;;;;5096920;28;20040;-82
2022/06/17 01:44:54;;;;;;;5.75;2.70;;;20.80;99.90;;;;;;5098288;28;20052;-80
2022/06/17 01:47:24;;;;;;;5.82;2.85;;;20.80;99.90;;;;;;5095574;28;20510;-82
2022/06/17 01:49:55;;;;;;;6.38;2.40;;;20.70;99.90;;;;;;5094569;28;20474;-81
2022/06/17 01:52:48;;;;;;;5.72;2.72;;;20.70;99.90;;;;;;5095401;28;20048;-80
2022/06/17 01:55:23;;;;;;;7.30;2.70;;;20.70;99.90;;;;;;5095730;28;20040;-81
2022/06/17 01:58:08;;;;;;;6.50;3.10;;;20.70;99.90;;;;;;5091457;28;20140;-80
2022/06/17 02:00:36;;;;;;;5.53;2.90;;;20.60;99.90;;;;;;5096581;28;20055;-78
2022/06/17 02:03:12;;;;;;;5.25;2.72;;;20.50;99.90;;;;;;5094017;28;20044;-81
2022/06/17 02:05:44;;;;;;;4.90;2.80;;;20.50;99.90;;;;;;5103139;28;20112;-79
2022/06/17 02:08:11;;;;;;;4.35;2.78;;;20.50;99.90;;;;;;5103666;28;20068;-80
2022/06/17 02:10:40;;;;;;;5.82;2.63;;;20.50;99.90;;;;;;5098262;28;20108;-78
2022/06/17 02:13:09;;;;;;;3.47;2.83;;;20.30;99.90;;;;;;5096911;28;20055;-81
2022/06/17 02:15:36;;;;;;;4.60;2.83;;;20.30;99.90;;;;;;5095493;28;20093;-81
2022/06/17 02:18:11;;;;;;;5.25;2.60;;;20.30;99.90;;;;;;5102972;28;20048;-78
2022/06/17 02:20:40;;;;;;;4.40;2.58;;;20.10;99.90;;;;;;5101410;28;20421;-81
2022/06/17 02:23:08;;;;;;;4.07;3.05;;;20.20;99.90;;;;;;5093664;28;20135;-80
2022/06/17 02:25:43;;;;;;;3.90;2.83;;;20.20;99.90;;;;;;5095184;28;20086;-80
2022/06/17 02:28:10;;;;;;;7.60;3.38;;;20.20;99.90;;;;;;5093387;28;20083;-81
2022/06/17 02:30:39;;;;;;;6.53;3.17;;;20.10;99.90;;;;;;5093009;28;20079;-80
2022/06/17 02:33:07;;;;;;;5.87;2.80;;;20.10;99.90;;;;;;5094506;28;20079;-81
2022/06/17 02:35:36;;;;;;;5.18;2.88;;;20.10;99.90;;;;;;5092760;28;20444;-79
2022/06/17 02:38:04;;;;;;;6.45;3.08;;;20.10;99.90;;;;;;5096043;28;20127;-81
2022/06/17 02:40:41;;;;;;;6.25;2.67;;;20.00;99.90;;;;;;5070614;28;20055;-80
2022/06/17 02:43:23;;;;;;;3.78;2.63;;;20.00;99.90;;;;;;5093438;28;20052;-81
2022/06/17 02:45:54;;;;;;;10.70;3.28;;;20.00;99.90;;;;;;5091289;28;20336;-80
2022/06/17 02:48:33;;;;;;;3.33;2.80;;;20.00;99.90;;;;;;5093253;28;20048;-80
2022/06/17 02:51:01;;;;;;;5.68;2.80;;;19.90;99.90;;;;;;5091194;28;20135;-80
2022/06/17 02:53:36;;;;;;;4.63;3.00;;;19.90;99.90;;;;;;5087216;28;20132;-81
2022/06/17 02:56:09;;;;;;;5.45;3.20;;;19.90;99.90;;;;;;5094293;28;20044;-82
2022/06/17 02:58:57;;;;;;;4.63;3.17;;;19.90;99.90;;;;;;5094538;28;20057;-82
2022/06/17 03:01:26;;;;;;;5.10;2.95;;;19.80;99.90;;;;;;5092150;28;20537;-80
2022/06/17 03:03:55;;;;;;;5.88;3.20;;;19.70;99.90;;;;;;5089148;28;20055;-78
2022/06/17 03:06:32;;;;;;;6.22;3.25;;;19.60;99.90;;;;;;5090565;28;20444;-80
2022/06/17 03:09:13;;;;;;;4.38;2.67;;;19.70;99.90;;;;;;5084219;28;20052;-78
2022/06/17 03:11:41;;;;;;;4.35;2.75;;;19.70;99.90;;;;;;5085339;28;20044;-78
2022/06/17 03:14:09;;;;;;;5.03;2.70;;;19.70;99.90;;;;;;5081224;28;20052;-82
2022/06/17 03:16:36;;;;;;;5.32;2.72;;;19.60;99.90;;;;;;5086443;28;20040;-78
2022/06/17 03:19:03;;;;;;;5.13;2.90;;;19.60;99.90;;;;;;5085786;28;20048;-78
2022/06/17 03:21:30;;;;;;;4.00;2.90;;;19.60;99.90;;;;;;5086427;28;20048;-78
2022/06/17 03:24:12;;;;;;;4.20;3.13;;;19.60;99.90;;;;;;5086420;28;20050;-78
2022/06/17 03:26:44;;;;;;;5.38;3.28;;;19.60;99.90;;;;;;5081342;28;20071;-78
2022/06/17 03:29:13;;;;;;;6.50;2.80;;;19.60;99.90;;;;;;5086332;28;20048;-81
2022/06/17 03:32:00;;;;;;;4.82;3.17;;;19.60;99.90;;;;;;5083515;28;20045;-76
2022/06/17 03:34:53;;;;;;;6.95;2.97;;;19.70;99.90;;;;;;5081385;28;20049;-79
2022/06/17 03:37:26;;;;;;;5.43;2.88;;;19.60;99.90;;;;;;5083146;28;20387;-78
2022/06/17 03:40:03;;;;;;;5.28;3.50;;;19.50;99.90;;;;;;5085325;28;20659;-77
2022/06/17 03:42:42;;;;;;;3.10;2.80;;;19.50;99.90;;;;;;5081760;28;20044;-78
2022/06/17 03:45:17;;;;;;;4.68;3.28;;;19.50;99.90;;;;;;5084352;28;20079;-77
2022/06/17 03:48:03;;;;;;;3.78;2.83;;;19.40;99.90;;;;;;5080596;28;20128;-80
2022/06/17 03:50:36;;;;;;;4.30;2.95;;;19.40;99.90;;;;;;5084773;28;20420;-76
2022/06/17 03:53:06;;;;;;;7.53;3.15;;;19.40;99.90;;;;;;5080278;28;20139;-76
2022/06/17 03:55:33;;;;;;;3.67;2.70;;;19.30;99.90;;;;;;5085748;28;20070;-78
2022/06/17 03:58:01;;;;;;;5.20;3.00;;;19.40;99.90;;;;;;5085684;28;20087;-79
2022/06/17 04:00:52;;;;;;;4.70;3.00;;;19.40;99.90;;;;;;5085229;28;20143;-79
2022/06/17 04:03:24;;;;;;;7.97;2.85;;;19.40;99.90;;;;;;5083475;28;20506;-78
2022/06/17 04:06:13;;;;;;;5.25;2.88;;;19.40;99.90;;;;;;5084567;28;20048;-79
2022/06/17 04:08:50;;;;;;;3.00;2.40;;;19.50;99.90;;;;;;5084534;28;20477;-77
2022/06/17 04:11:17;;;;;;;5.80;3.00;;;19.50;99.90;;;;;;5081374;28;20053;-78
2022/06/17 04:13:44;;;;;;;6.68;2.92;;;19.50;99.90;;;;;;5087717;28;20051;-79
2022/06/17 04:16:49;;;;;;;6.20;2.92;;;19.50;99.90;;;;;;5085384;28;20224;-79
2022/06/17 04:19:25;;;;;;;4.32;2.72;;;19.60;99.90;;;;;;5085492;28;20113;-78
2022/06/17 04:21:55;;;;;;;9.38;2.95;;;19.60;99.90;;;;;;5080514;28;20044;-80
2022/06/17 04:24:25;;;;;;;5.40;3.03;;;19.60;99.90;;;;;;5088208;28;20080;-78
2022/06/17 04:26:55;;;;;;;4.25;2.67;;;19.60;99.90;;;;;;5090146;28;20785;-77
2022/06/17 04:29:44;;;;;;;9.05;2.90;;;19.60;99.90;;;;;;5097529;28;20060;-78
2022/06/17 04:32:27;;;;;;;3.38;2.70;;;19.70;99.90;;;;;;5092947;28;20473;-77
2022/06/17 04:34:54;;;;;;;5.47;2.53;;;19.80;99.90;;;;;;5081730;28;20049;-77
2022/06/17 04:37:22;;;;;;;4.82;2.83;;;19.80;99.90;;;;;;5086744;28;20080;-79
2022/06/17 04:39:53;;;;;;;4.22;3.20;;;19.80;99.90;;;;;;5087698;28;20079;-79
2022/06/17 04:42:33;;;;;;;7.60;2.60;;;19.90;99.90;;;;;;5088119;28;20076;-80
2022/06/17 04:45:00;;;;;;;3.15;2.50;;;19.90;99.90;;;;;;5085625;28;20062;-79
2022/06/17 04:47:27;;;;;;;3.25;2.55;;;20.00;99.90;;;;;;5091038;28;20056;-77
2022/06/17 04:50:01;;;;;;;6.20;2.90;;;20.10;99.90;;;;;;5089709;28;20498;-78
2022/06/17 04:52:36;;;;;;;3.67;2.70;;;20.20;99.90;;;;;;5089467;28;20072;-77
2022/06/17 04:55:06;;;;;;;3.50;2.60;;;20.30;99.90;;;;;;5086981;28;20044;-77
2022/06/17 04:57:34;;;;;;;;;;;20.40;99.90;;;;;;5092134;28;20044;-79
2022/06/17 05:00:01;;;;;;;2.55;2.33;;;20.50;99.90;;;;;;5091479;28;20357;-78
2022/06/17 05:02:30;;;;;;;4.13;2.55;;;20.50;99.90;;;;;;5091238;28;20044;-79
2022/06/17 05:05:00;;;;;;;4.47;2.58;;;20.60;99.90;;;;;;5092704;28;20072;-77
2022/06/17 05:07:31;;;;;;;4.85;2.97;;;20.60;99.90;;;;;;5089186;28;20083;-80
2022/06/17 05:10:29;;;;;;;4.60;2.20;;;20.70;99.90;;;;;;5092269;28;20048;-79
2022/06/17 05:13:25;;;;;;;6.00;2.75;;;20.70;99.90;;;;;;5088369;28;20080;-77
2022/06/17 05:15:52;;;;;;;4.57;2.95;;;20.70;99.90;;;;;;5090260;28;20044;-79
2022/06/17 05:18:18;;;;;;;5.60;2.50;;;20.70;99.90;;;;;;5091850;28;20482;-79
2022/06/17 05:20:45;;;;;;;8.60;2.50;;;20.70;99.90;;;;;;5092358;28;20045;-80
2022/06/17 05:23:15;;;;;;;4.53;2.33;;;20.70;99.90;;;;;;5090568;28;20045;-78
2022/06/17 05:25:45;;;;;;;5.68;2.83;;;20.80;99.90;;;;;;5093686;28;20477;-80
2022/06/17 05:28:15;;;;;;;4.57;2.50;;;20.90;99.90;;;;;;5087455;28;20048;-79
2022/06/17 05:30:48;;;;;;;6.07;3.50;;;20.90;99.90;;;;;;5093577;28;20040;-80
2022/06/17 05:33:21;;;;;;;4.50;2.30;;;21.00;99.90;;;;;;5093525;28;20044;-78
2022/06/17 05:35:48;;;;;;;4.47;2.35;;;21.00;99.90;;;;;;5091342;28;20132;-81
2022/06/17 05:38:15;;;;;;;6.00;2.85;;;21.10;99.90;;;;;;5094308;28;20103;-79
2022/06/17 05:40:43;;;;;;;5.70;2.45;;;21.20;99.90;;;;;;5091302;28;20066;-80
2022/06/17 05:43:10;;;;;;;6.45;2.60;;;21.30;99.90;;;;;;5093255;28;20245;-78
2022/06/17 05:45:37;;;;;;;3.78;2.45;;;21.30;99.90;;;;;;5091521;28;20088;-79
2022/06/17 05:48:05;;;;;;;3.50;2.38;;;21.40;99.90;;;;;;5092301;28;20106;-79
2022/06/17 05:50:31;;;;;;;7.75;2.78;;;21.50;99.90;;;;;;5093174;28;20115;-80
2022/06/17 05:53:04;;;;;;;7.93;2.05;;;21.40;99.90;;;;;;5098031;28;20048;-80
2022/06/17 05:55:32;;;;;;;6.50;2.60;;;21.50;99.90;;;;;;5084896;28;20045;-79
2022/06/17 05:58:00;;;;;;;7.35;2.75;;;21.60;99.90;;;;;;5093258;28;20123;-80
2022/06/17 06:00:28;;;;;;;5.43;2.40;;;21.60;99.90;;;;;;5090320;28;20307;-78
2022/06/17 06:03:01;;;;;;;6.40;2.30;;;21.70;99.90;;;;;;5089860;28;20048;-79
2022/06/17 06:05:30;;;;;;;8.10;2.83;;;21.60;99.90;;;;;;5091517;28;20429;-79
2022/06/17 06:07:58;;;;;;;7.00;2.25;;;21.60;99.90;;;;;;5089760;28;20044;-80
2022/06/17 06:10:32;;;;;;;5.00;2.25;;;21.70;99.90;;;;;;5087492;28;20049;-80
2022/06/17 06:13:03;;;;;;;4.53;1.85;;;21.80;99.90;;;;;;5091717;28;20082;-78
2022/06/17 06:15:39;;;;;;;6.22;2.13;;;21.80;99.90;;;;;;5090216;28;20055;-81
2022/06/17 06:18:08;;;;;;;2.72;1.88;;;21.80;99.90;;;;;;5086314;28;20101;-78
2022/06/17 06:20:35;;;;;;;3.72;2.22;;;21.90;99.90;;;;;;5092048;28;20108;-80
2022/06/17 06:23:02;;;;;;;16.92;3.30;;;21.80;99.90;;;;;;5090289;28;20076;-78
2022/06/17 06:25:30;;;;;;;4.65;2.30;;;21.90;99.90;;;;;;5091651;28;20107;-79
2022/06/17 06:27:57;;;;;;;5.57;2.15;;;21.80;99.90;;;;;;5090452;28;20057;-80
2022/06/17 06:30:29;;;;;;;7.10;2.40;;;21.80;99.90;;;;;;5090134;28;20570;-79
2022/06/17 06:33:01;;;;;;;4.53;2.00;;;21.70;99.90;;;;;;5091679;28;20065;-78
2022/06/17 06:35:32;;;;;;;3.10;2.00;;;21.70;99.90;;;;;;5085164;28;20044;-79
2022/06/17 06:38:00;;;;;;;6.15;2.08;;;21.70;99.90;;;;;;5091318;28;20044;-80
2022/06/17 06:40:28;;;;;;;3.22;2.20;;;21.80;99.90;;;;;;5090309;28;20127;-78
2022/06/17 06:42:55;;;;;;;4.90;1.92;;;21.80;99.90;;;;;;5088223;28;20131;-80
2022/06/17 06:45:31;;;;;;;4.80;2.40;;;21.80;99.90;;;;;;5092378;28;20048;-78
2022/06/17 06:48:03;;;;;;;4.32;2.58;;;21.80;99.90;;;;;;5090807;28;20127;-77
2022/06/17 06:50:31;;;;;;;5.90;2.17;;;21.60;99.90;;;;;;5098719;28;20110;-80
2022/06/17 06:52:58;;;;;;;4.90;2.50;;;21.70;99.90;;;;;;5090147;28;20062;-80
2022/06/17 06:55:26;;;;;;;5.65;2.22;;;21.70;99.90;;;;;;5091752;28;20080;-77
2022/06/17 06:57:56;;;;;;;3.72;2.03;;;21.80;99.90;;;;;;5088675;28;20051;-78
2022/06/17 07:00:26;;;;;;;3.55;1.98;;;21.70;99.90;;;;;;5083058;28;20052;-80
2022/06/17 07:02:54;;;;;;;5.32;2.75;;;21.70;99.90;;;;;;5091149;28;20099;-79
2022/06/17 07:05:21;;;;;;;8.27;2.65;;;21.70;99.90;;;;;;5089460;28;20460;-80
2022/06/17 07:07:47;;;;;;;4.18;2.10;;;21.70;99.90;;;;;;5089305;28;20135;-79
2022/06/17 07:10:20;;;;;;;5.57;2.00;;;21.80;99.90;;;;;;5089831;28;20044;-79
2022/06/17 07:12:47;;;;;;;5.95;2.40;;;21.90;99.90;;;;;;5088287;28;20049;-81
2022/06/17 07:15:15;;;;;;;4.15;2.00;;;21.90;99.90;;;;;;5091436;28;20502;-78
2022/06/17 07:18:05;;;;;;;6.43;2.28;;;21.90;99.90;;;;;;5084350;28;20493;-77
2022/06/17 07:20:42;;;;;;;7.07;2.58;;;22.00;99.90;;;;;;5086769;28;20048;-79
2022/06/17 07:23:15;;;;;;;3.25;2.22;;;22.00;99.90;;;;;;5090084;28;20044;-79
2022/06/17 07:25:42;;;;;;;5.03;2.03;;;22.00;99.90;;;;;;5089134;28;20044;-79
2022/06/17 07:28:13;;;;;;;8.43;2.47;;;21.90;99.90;;;;;;5087130;28;20063;-79
2022/06/17 07:30:44;;;;;;;7.43;2.38;;;21.80;99.90;;;;;;5082956;28;20051;-78
2022/06/17 07:33:11;;;;;;;4.03;2.05;;;21.80;99.90;;;;;;5087611;28;20059;-78
2022/06/17 07:35:40;;;;;;;6.00;2.40;;;21.80;99.90;;;;;;5088468;28;20079;-79
2022/06/17 07:40:59;;;;;;;4.07;2.20;;;21.90;99.90;;;;;;5087251;28;20044;-77
2022/06/17 07:43:26;;;;;;;7.90;2.53;;;22.00;99.90;;;;;;5087735;28;20048;-78
2022/06/17 07:45:53;;;;;;;10.77;2.75;;;22.20;99.90;;;;;;5090258;28;20051;-78
2022/06/17 07:48:20;;;;;;;3.20;2.60;;;22.20;99.90;;;;;;5087034;28;20055;-79
2022/06/17 07:50:47;;;;;;;5.07;2.72;;;22.40;99.90;;;;;;5091272;28;20060;-78
2022/06/17 07:53:14;;;;;;;6.15;2.40;;;22.40;99.90;;;;;;5078812;28;20049;-78
2022/06/17 07:55:42;;;;;;;6.53;2.30;;;22.50;99.90;;;;;;5090180;28;20044;-79
2022/06/17 07:58:11;;;;;;;4.32;2.20;;;22.60;99.90;;;;;;5088239;28;20053;-80
2022/06/17 08:00:42;;;;;;;7.45;2.30;;;22.70;99.90;;;;;;5089669;28;20104;-80
2022/06/17 08:03:13;;;;;;;3.78;2.50;;;22.80;99.90;;;;;;5091039;28;20051;-79
2022/06/17 08:05:46;;;;;;;5.38;3.28;;;22.90;99.90;;;;;;5088065;28;20052;-80
2022/06/17 08:08:21;;;;;;;7.00;2.40;;;22.90;99.90;;;;;;5086197;28;20053;-80
2022/06/17 08:10:50;;;;;;;3.53;2.20;;;22.70;99.90;;;;;;5088997;28;20055;-80
2022/06/17 08:13:18;;;;;;;6.35;2.53;;;22.80;99.90;;;;;;5091241;28;20055;-79
2022/06/17 08:15:45;;;;;;;3.10;2.20;;;22.60;99.90;;;;;;5092005;28;20091;-79
2022/06/17 08:18:12;;;;;;;5.28;2.90;;;22.70;99.90;;;;;;5087199;28;20045;-78
2022/06/17 08:20:41;;;;;;;5.00;2.58;;;22.70;99.90;;;;;;5101302;28;20040;-78
2022/06/17 08:23:08;;;;;;;5.80;2.30;;;22.70;99.90;;;;;;5107889;28;20109;-78
2022/06/17 08:25:36;;;;;;;5.13;2.50;;;22.80;99.90;;;;;;5093955;28;20047;-81
2022/06/17 08:28:06;;;;;;;6.82;2.38;;;22.80;99.90;;;;;;5093938;28;20112;-79
2022/06/17 08:30:36;;;;;;;6.65;2.28;;;22.80;99.90;;;;;;5093454;28;20102;-79
2022/06/17 08:33:03;;;;;;;6.47;2.17;;;22.90;99.90;;;;;;5095464;28;20048;-79
2022/06/17 08:35:51;;;;;;;7.53;2.30;;;22.90;99.90;;;;;;5093647;28;20052;-78
2022/06/17 08:38:26;;;;;;;9.68;2.00;;;23.00;99.90;;;;;;5091537;28;20048;-78
2022/06/17 08:40:53;;;;;;;4.72;2.00;;;23.00;99.90;;;;;;5089895;28;20087;-79
2022/06/17 08:43:36;;;;;;;4.43;2.03;;;23.00;99.90;;;;;;5093164;28;20052;-78
2022/06/17 08:46:31;;;;;;;4.28;2.13;;;23.00;99.90;;;;;;5094427;28;20044;-79
2022/06/17 08:49:20;;;;;;;5.38;2.15;;;23.10;99.90;;;;;;5100065;28;20049;-77
2022/06/17 08:52:24;;;;;;;5.15;1.90;;;23.10;99.90;;;;;;5091278;28;20054;-77
2022/06/17 08:55:07;;;;;;;4.10;2.13;;;23.20;99.90;;;;;;5089514;28;20169;-79
2022/06/17 08:57:39;;;;;;;8.77;2.08;;;23.30;99.90;;;;;;5092429;28;20128;-79
2022/06/17 09:00:24;;;;;;;4.63;2.42;;;23.30;99.90;;;;;;5089454;28;20504;-79
2022/06/17 09:03:18;;;;;;;7.88;2.10;;;23.30;99.90;;;;;;5091208;28;20041;-79
2022/06/17 09:05:54;;;;;;;5.03;2.03;;;23.40;99.90;;;;;;5087693;28;20135;-80
2022/06/17 09:08:51;;;;;;;6.35;2.30;;;23.40;99.90;;;;;;5092085;28;20052;-79
2022/06/17 09:11:35;;;;;;;8.18;2.33;;;23.50;99.90;;;;;;5092177;28;20076;-78
2022/06/17 09:14:16;;;;;;;3.90;2.35;;;23.50;99.90;;;;;;5089502;28;20422;-79
2022/06/17 09:16:49;;;;;;;;;;;23.60;99.90;;;;;;5092079;28;20151;-79
2022/06/17 09:19:28;;;;;;;4.22;2.33;;;23.70;99.90;;;;;;5085911;28;19996;-78
2022/06/17 09:22:04;;;;;;;3.70;2.15;;;23.70;99.90;;;;;;5089049;28;20421;-78
2022/06/17 09:24:40;;;;;;;6.43;2.00;;;23.80;99.90;;;;;;5090360;28;20048;-80
2022/06/17 09:27:31;;;;;;;5.45;1.83;;;23.80;99.90;;;;;;5094290;28;20138;-81
2022/06/17 09:30:20;;;;;;;7.60;2.20;;;23.90;99.90;;;;;;5091598;28;20485;-79
2022/06/17 09:32:56;;;;;;;9.25;2.85;;;23.90;99.90;;;;;;5090812;28;20108;-79
2022/06/17 09:35:35;;;;;;;4.50;2.28;;;24.00;99.90;;;;;;5093021;28;20068;-80
2022/06/17 09:38:23;;;;;;;4.43;2.13;;;24.00;99.90;;;;;;5090042;28;20108;-80
2022/06/17 09:41:11;;;;;;;7.05;1.88;;;24.10;99.90;;;;;;5088957;28;20051;-79
2022/06/17 09:43:40;;;;;;;7.30;2.72;;;24.20;99.90;;;;;;5092663;28;20076;-79
2022/06/17 09:46:19;;;;;;;6.65;2.17;;;24.20;99.90;;;;;;5089204;28;20057;-81
2022/06/17 09:48:53;;;;;;;5.40;2.30;;;24.30;99.90;;;;;;5093482;28;20085;-80
2022/06/17 09:51:24;;;;;;;6.30;2.22;;;24.30;99.90;;;;;;5095975;28;20074;-81
2022/06/17 09:53:54;;;;;;;7.57;2.38;;;24.30;99.90;;;;;;5088431;28;20048;-80
2022/06/17 09:56:35;;;;;;;7.20;2.38;;;24.40;99.90;;;;;;5093049;28;20413;-80
2022/06/17 09:59:15;;;;;;;6.10;2.05;;;24.40;99.90;;;;;;5095125;28;20047;-80
2022/06/17 10:01:43;;;;;;;7.00;2.10;;;24.50;99.90;;;;;;5092052;28;20087;-80
2022/06/17 10:04:12;;;;;;;4.32;2.08;;;24.50;99.90;;;;;;5093928;28;20048;-81
2022/06/17 10:06:56;;;;;;;4.85;2.30;;;24.60;99.90;;;;;;5095480;28;20048;-81
2022/06/17 10:09:47;;;;;;;8.68;1.95;;;24.60;99.90;;;;;;5091034;28;20049;-80
2022/06/17 10:12:17;;;;;;;4.70;2.00;;;24.70;99.90;;;;;;5089260;28;20041;-80
2022/06/17 10:15:08;;;;;;;3.92;2.10;;;24.70;99.90;;;;;;5092808;28;20050;-79
2022/06/17 10:20:52;;;;;;;5.65;2.40;;;24.80;99.90;;;;;;5094664;28;20048;-79
2022/06/17 10:23:28;;;;;;;3.30;2.10;;;24.90;99.90;;;;;;5093039;28;20131;-79
2022/06/17 10:26:17;;;;;;;10.32;2.15;;;25.00;99.90;;;;;;5092042;28;20052;-81
2022/06/17 10:29:15;;;;;;;7.72;2.25;;;25.00;99.90;;;;;;5092995;28;20047;-80
2022/06/17 10:31:45;;;;;;;4.45;2.30;;;25.10;99.90;;;;;;5094108;28;20052;-79
2022/06/17 10:34:24;;;;;;;3.50;1.92;;;25.20;99.90;;;;;;5070272;28;20049;-80
2022/06/17 10:36:54;;;;;;;4.15;2.00;;;25.30;99.90;;;;;;5092714;28;20045;-81
2022/06/17 10:39:25;;;;;;;3.70;2.03;;;25.30;99.90;;;;;;5091116;28;20051;-79
2022/06/17 10:41:52;;;;;;;4.03;2.20;;;25.40;99.90;;;;;;5087524;28;20086;-80
2022/06/17 10:44:23;;;;;;;6.03;2.35;;;25.50;99.90;;;;;;5092570;28;20130;-80
2022/06/17 10:46:59;;;;;;;5.95;2.03;;;25.50;99.90;;;;;;5092095;28;20510;-80
2022/06/17 10:49:40;;;;;;;9.65;2.15;;;25.50;99.90;;;;;;5090771;28;20048;-82
2022/06/17 10:52:17;;;;;;;4.00;1.98;;;25.60;99.90;;;;;;5089849;28;20438;-82
2022/06/17 10:54:46;;;;;;;5.28;2.03;;;25.70;99.90;;;;;;5090897;28;20055;-80
2022/06/17 10:57:37;;;;;;;3.28;2.05;;;25.80;99.90;;;;;;5086702;28;20059;-81
2022/06/17 11:00:23;;;;;;;4.47;2.00;;;25.80;99.90;;;;;;5090918;28;20079;-80
2022/06/17 11:02:50;;;;;;;5.63;2.15;;;26.00;99.90;;;;;;5091295;28;20048;-80
2022/06/17 11:05:34;;;;;;;4.75;2.15;;;26.00;99.90;;;;;;5094724;28;20048;-80
2022/06/17 11:08:00;;;;;;;7.50;2.38;;;26.10;99.90;;;;;;5090516;28;20080;-80
2022/06/17 11:10:30;;;;;;;7.78;2.00;;;26.00;99.90;;;;;;5091310;28;20416;-79
2022/06/17 11:13:02;;;;;;;5.20;2.20;;;26.00;99.90;;;;;;5093045;28;20074;-82
2022/06/17 11:15:46;;;;;;;3.38;1.73;;;26.00;99.90;;;;;;5086056;28;20054;-80
2022/06/17 11:18:45;;;;;;;4.25;2.05;;;26.20;99.90;;;;;;5089311;28;20607;-78
2022/06/17 11:21:28;;;;;;;6.30;1.92;;;26.20;99.90;;;;;;5085512;28;20079;-79
2022/06/17 11:23:58;;;;;;;4.63;2.20;;;26.30;99.90;;;;;;5091622;28;20525;-79
2022/06/17 11:26:31;;;;;;;4.57;2.05;;;26.30;99.90;;;;;;5089250;28;20048;-79
2022/06/17 11:29:08;;;;;;;4.72;2.15;;;26.40;99.90;;;;;;5086352;28;20056;-78
2022/06/17 11:31:39;;;;;;;4.18;1.85;;;26.40;99.90;;;;;;5092232;28;20043;-79
2022/06/17 11:34:17;;;;;;;4.97;2.25;;;26.50;99.90;;;;;;5093940;28;20044;-81
2022/06/17 11:36:56;;;;;;;5.50;2.10;;;26.70;99.90;;;;;;5070949;28;20045;-80
2022/06/17 11:39:31;;;;;;;4.00;1.90;;;26.70;99.90;;;;;;5089391;28;20049;-80
2022/06/17 11:42:01;;;;;;;2.85;2.15;;;26.80;99.90;;;;;;5086744;28;20521;-78
2022/06/17 11:44:29;;;;;;;7.90;2.00;;;27.00;99.90;;;;;;5092595;28;20052;-78
2022/06/17 11:46:59;;;;;;;2.85;1.83;;;27.10;99.90;;;;;;5094835;28;20078;-77
2022/06/17 11:49:27;;;;;;;6.30;2.08;;;27.00;99.90;;;;;;5090275;28;20048;-78
2022/06/17 11:52:02;;;;;;;5.50;2.00;;;27.00;99.90;;;;;;5094153;28;20075;-79
2022/06/17 11:54:46;;;;;;;3.17;1.60;;;27.00;99.90;;;;;;5088180;28;20058;-79
2022/06/17 11:57:27;;;;;;;6.93;2.30;;;27.10;99.90;;;;;;5091293;28;20048;-80
2022/06/17 11:59:57;;;;;;;5.95;1.83;;;27.10;99.90;;;;;;5089696;28;20050;-79
2022/06/17 12:02:25;;;;;;;7.35;2.50;;;27.10;99.90;;;;;;5091207;28;20048;-79
2022/06/17 12:05:03;;;;;;;4.25;1.77;;;27.20;99.90;;;;;;5089351;28;20074;-78
2022/06/17 12:07:52;;;;;;;5.95;3.10;;;27.20;99.90;;;;;;5103142;28;20076;-80
2022/06/17 12:10:50;;;;;;;5.40;2.30;;;27.20;99.90;;;;;;5087050;28;20055;-80
2022/06/17 12:13:17;;;;;;;4.65;1.80;;;27.30;99.90;;;;;;5088939;28;20049;-80
2022/06/17 12:15:47;;;;;;;5.93;2.28;;;27.30;99.90;;;;;;5091335;28;20044;-79
2022/06/17 12:18:21;;;;;;;4.32;1.50;;;27.40;99.90;;;;;;5093435;28;20048;-81
2022/06/17 12:21:12;;;;;;;4.60;2.30;;;27.50;99.90;;;;;;5085195;28;20044;-79
2022/06/17 12:24:23;;;;;;;4.03;2.10;;;27.50;99.90;;;;;;5089204;28;20104;-79
2022/06/17 12:27:05;;;;;;;3.42;2.03;;;27.60;99.90;;;;;;5048635;28;20080;-80
2022/06/17 12:29:53;;;;;;;4.88;2.00;;;27.60;99.90;;;;;;5084313;28;20509;-79
2022/06/17 12:32:28;;;;;;;3.22;1.58;;;27.70;99.90;;;;;;5085148;28;20048;-78
2022/06/17 12:35:03;;;;;;;7.93;2.30;;;27.80;99.90;;;;;;5090999;28;20054;-79
2022/06/17 12:37:38;;;;;;;4.60;1.67;;;27.80;99.90;;;;;;5093393;28;20040;-79
2022/06/17 12:40:08;;;;;;;5.07;1.85;;;27.80;99.90;;;;;;5086961;28;20055;-80
2022/06/17 12:42:47;;;;;;;6.43;1.75;;;27.80;99.90;;;;;;5092393;28;20052;-79
2022/06/17 12:45:36;;;;;;;7.35;1.70;;;27.90;99.90;;;;;;5092424;28;20050;-79
2022/06/17 12:48:22;;;;;;;5.80;1.83;;;27.90;99.90;;;;;;5091850;28;20071;-78
2022/06/17 12:54:14;;;;;;;6.85;1.90;;;28.00;99.90;;;;;;5074378;28;20052;-79
2022/06/17 12:56:47;;;;;;;5.10;1.98;;;28.00;99.90;;;;;;5088711;28;20477;-78
2022/06/17 12:59:34;;;;;;;4.70;1.60;;;28.00;99.90;;;;;;5085610;28;20048;-79
2022/06/17 13:02:21;;;;;;;4.88;1.98;;;28.00;99.90;;;;;;5092901;28;20166;-82
2022/06/17 13:05:15;;;;;;;4.82;2.00;;;28.00;99.90;;;;;;5093887;28;20066;-79
2022/06/17 13:08:20;;;;;;;5.82;1.60;;;28.00;99.90;;;;;;5094012;28;20896;-80
2022/06/17 13:10:59;;;;;;;6.60;1.52;;;28.10;99.90;;;;;;5069968;28;20049;-79
2022/06/17 13:13:42;;;;;;;3.72;1.55;;;28.20;99.90;;;;;;5071231;28;20048;-78
2022/06/17 13:16:28;;;;;;;2.85;1.55;;;28.10;99.90;;;;;;5085962;28;20052;-79
2022/06/17 13:19:19;;;;;;;7.57;2.03;;;28.20;99.90;;;;;;5087924;28;20112;-79
2022/06/17 13:22:01;;;;;;;4.90;1.67;;;28.30;99.90;;;;;;5092281;28;20139;-79
2022/06/17 13:24:54;;;;;;;4.05;1.35;;;28.30;99.90;;;;;;5093699;28;20417;-78
2022/06/17 13:27:36;;;;;;;4.20;1.67;;;28.30;99.90;;;;;;5092442;28;20167;-81
2022/06/17 13:30:14;;;;;;;3.85;1.70;;;28.30;99.90;;;;;;5084771;28;20053;-82
2022/06/17 13:32:59;;;;;;;4.03;1.70;;;28.30;99.90;;;;;;5092852;28;20067;-79
2022/06/17 13:35:44;;;;;;;4.03;1.52;;;28.30;99.90;;;;;;5092049;28;20036;-82
2022/06/17 13:38:17;;;;;;;3.17;1.67;;;28.20;99.90;;;;;;5090252;28;20044;-83